CheckWX is a tool to help pilots better visualize weather data.  It is not intended as a substitute for an official pre-flight weather briefing.

17:02:01 UTC

ENRO TAF
Røros Airport
Røros, Norway
TAF ENRO 181100Z 1812/1818 20008KT 9999 BKN040 TEMPO 1812/1817 24015G25KT TEMPO 1814/1818 SHRA SCT020 SCT030CB PROB30 TEMPO 1816/1818 TS

Jun-18@
12:00 UTC

Jun-18 @ 12:00 UTC

Jun-18@
18:00 UTC

Jun-18 @ 18:00 UTC

TAF ENRO 181100Z 1812/1818 20008KT 9999 BKN040
Wind
  • 200° at 8 KTS
Cloud Levels
  • Broken at 4,000' AGL

Jun-18@
12:00 UTC

Jun-18 @ 12:00 UTC

Jun-18@
17:00 UTC

Jun-18 @ 17:00 UTC

TEMPO 1812/1817 24015G25KT

Expired

Wind
  • 240° at 15 KTS
  • {Gusting to 25 KTS

Jun-18@
14:00 UTC

Jun-18 @ 14:00 UTC

Jun-18@
18:00 UTC

Jun-18 @ 18:00 UTC

TEMPO 1814/1818 SHRA SCT020 SCT030CB

Temporary

Temporary Changes expected for less than half the time period

Conditions
Rain
Cloud Levels
  • Scattered at 2,000' AGL
  • Scattered at 3,000' AGL

Jun-18@
16:00 UTC

Jun-18 @ 16:00 UTC

Jun-18@
18:00 UTC

Jun-18 @ 18:00 UTC

PROB30 TEMPO 1816/1818 TS

Temporary - 30% Likelihood

Temporary - 30% Likelihood during this time.

Conditions
Thunderstorm